sensor_id;sensor_type;location;lat;lon;timestamp;temperature;humidity
45643;DHT22;31358;46.008;11.144;2022-11-15T00:01:41;8.10;99.90
45643;DHT22;31358;46.008;11.144;2022-11-15T00:04:07;8.10;99.90
45643;DHT22;31358;46.008;11.144;2022-11-15T00:06:33;8.20;99.90
45643;DHT22;31358;46.008;11.144;2022-11-15T00:09:00;8.20;99.90
45643;DHT22;31358;46.008;11.144;2022-11-15T00:11:25;8.30;99.90
45643;DHT22;31358;46.008;11.144;2022-11-15T00:13:54;8.30;99.90
45643;DHT22;31358;46.008;11.144;2022-11-15T00:16:20;8.40;99.90
45643;DHT22;31358;46.008;11.144;2022-11-15T00:18:46;8.30;99.90
45643;DHT22;31358;46.008;11.144;2022-11-15T00:21:13;8.20;99.90
45643;DHT22;31358;46.008;11.144;2022-11-15T00:23:39;8.30;99.90
45643;DHT22;31358;46.008;11.144;2022-11-15T00:26:05;8.30;99.90
45643;DHT22;31358;46.008;11.144;2022-11-15T00:28:31;8.40;99.90
45643;DHT22;31358;46.008;11.144;2022-11-15T00:31:04;8.40;99.90
45643;DHT22;31358;46.008;11.144;2022-11-15T00:33:31;8.40;99.90
45643;DHT22;31358;46.008;11.144;2022-11-15T00:36:05;8.20;99.90
45643;DHT22;31358;46.008;11.144;2022-11-15T00:38:32;8.30;99.90
45643;DHT22;31358;46.008;11.144;2022-11-15T00:40:58;8.40;99.90
45643;DHT22;31358;46.008;11.144;2022-11-15T00:43:24;8.40;99.90
45643;DHT22;31358;46.008;11.144;2022-11-15T00:45:50;8.40;99.90
45643;DHT22;31358;46.008;11.144;2022-11-15T00:48:15;8.40;99.90
45643;DHT22;31358;46.008;11.144;2022-11-15T00:50:41;8.40;99.90
45643;DHT22;31358;46.008;11.144;2022-11-15T00:53:06;8.40;99.90
45643;DHT22;31358;46.008;11.144;2022-11-15T00:55:32;8.40;99.90
45643;DHT22;31358;46.008;11.144;2022-11-15T00:57:58;8.40;99.90
45643;DHT22;31358;46.008;11.144;2022-11-15T01:00:23;8.40;99.90
45643;DHT22;31358;46.008;11.144;2022-11-15T01:02:49;8.50;99.90
45643;DHT22;31358;46.008;11.144;2022-11-15T01:05:15;8.40;99.90
45643;DHT22;31358;46.008;11.144;2022-11-15T01:07:40;8.40;99.90
45643;DHT22;31358;46.008;11.144;2022-11-15T01:10:06;8.50;99.90
45643;DHT22;31358;46.008;11.144;2022-11-15T01:12:32;8.60;99.90
45643;DHT22;31358;46.008;11.144;2022-11-15T01:14:58;8.50;99.90
45643;DHT22;31358;46.008;11.144;2022-11-15T01:17:24;8.50;99.90
45643;DHT22;31358;46.008;11.144;2022-11-15T01:19:49;8.50;99.90
45643;DHT22;31358;46.008;11.144;2022-11-15T01:22:15;8.50;99.90
45643;DHT22;31358;46.008;11.144;2022-11-15T01:24:41;8.40;99.90
45643;DHT22;31358;46.008;11.144;2022-11-15T01:27:07;8.20;99.90
45643;DHT22;31358;46.008;11.144;2022-11-15T01:29:33;8.30;99.90
45643;DHT22;31358;46.008;11.144;2022-11-15T01:31:58;8.30;99.90
45643;DHT22;31358;46.008;11.144;2022-11-15T01:34:24;8.20;99.90
45643;DHT22;31358;46.008;11.144;2022-11-15T01:36:49;8.20;99.90
45643;DHT22;31358;46.008;11.144;2022-11-15T01:39:15;8.10;99.90
45643;DHT22;31358;46.008;11.144;2022-11-15T01:41:42;7.90;99.90
45643;DHT22;31358;46.008;11.144;2022-11-15T01:44:42;7.90;99.90
45643;DHT22;31358;46.008;11.144;2022-11-15T01:47:13;7.90;99.90
45643;DHT22;31358;46.008;11.144;2022-11-15T01:49:52;8.00;99.90
45643;DHT22;31358;46.008;11.144;2022-11-15T01:52:20;8.00;99.90
45643;DHT22;31358;46.008;11.144;2022-11-15T01:54:58;7.90;99.90
45643;DHT22;31358;46.008;11.144;2022-11-15T01:57:26;7.90;99.90
45643;DHT22;31358;46.008;11.144;2022-11-15T01:59:52;8.00;99.90
45643;DHT22;31358;46.008;11.144;2022-11-15T02:02:18;7.80;99.90
45643;DHT22;31358;46.008;11.144;2022-11-15T02:04:46;7.70;99.90
45643;DHT22;31358;46.008;11.144;2022-11-15T02:07:15;7.70;99.90
45643;DHT22;31358;46.008;11.144;2022-11-15T02:09:42;7.50;99.90
45643;DHT22;31358;46.008;11.144;2022-11-15T02:12:10;7.40;99.90
45643;DHT22;31358;46.008;11.144;2022-11-15T02:14:38;7.40;99.90
45643;DHT22;31358;46.008;11.144;2022-11-15T02:28:42;7.40;99.90
45643;DHT22;31358;46.008;11.144;2022-11-15T02:31:12;7.40;99.90
45643;DHT22;31358;46.008;11.144;2022-11-15T02:42:11;7.30;99.90
45643;DHT22;31358;46.008;11.144;2022-11-15T02:44:58;7.30;99.90
45643;DHT22;31358;46.008;11.144;2022-11-15T02:47:30;7.30;99.90
45643;DHT22;31358;46.008;11.144;2022-11-15T02:50:06;7.30;99.90
45643;DHT22;31358;46.008;11.144;2022-11-15T02:52:33;7.30;99.90
45643;DHT22;31358;46.008;11.144;2022-11-15T02:55:00;7.30;99.90
45643;DHT22;31358;46.008;11.144;2022-11-15T03:00:10;7.20;99.90
45643;DHT22;31358;46.008;11.144;2022-11-15T03:09:07;7.00;99.90
45643;DHT22;31358;46.008;11.144;2022-11-15T03:11:38;6.90;99.90
45643;DHT22;31358;46.008;11.144;2022-11-15T03:14:25;6.90;99.90
45643;DHT22;31358;46.008;11.144;2022-11-15T03:17:08;6.90;99.90
45643;DHT22;31358;46.008;11.144;2022-11-15T03:19:47;6.90;99.90
45643;DHT22;31358;46.008;11.144;2022-11-15T03:22:17;6.70;99.90
45643;DHT22;31358;46.008;11.144;2022-11-15T03:24:46;6.70;99.90
45643;DHT22;31358;46.008;11.144;2022-11-15T03:27:14;6.50;99.90
45643;DHT22;31358;46.008;11.144;2022-11-15T03:29:45;6.50;99.90
45643;DHT22;31358;46.008;11.144;2022-11-15T03:32:16;6.50;99.90
45643;DHT22;31358;46.008;11.144;2022-11-15T03:34:53;6.60;99.90
45643;DHT22;31358;46.008;11.144;2022-11-15T03:37:24;6.90;99.90
45643;DHT22;31358;46.008;11.144;2022-11-15T03:39:51;7.10;99.90
45643;DHT22;31358;46.008;11.144;2022-11-15T03:42:21;7.30;99.90
45643;DHT22;31358;46.008;11.144;2022-11-15T03:45:13;7.30;99.90
45643;DHT22;31358;46.008;11.144;2022-11-15T03:47:46;7.30;99.90
45643;DHT22;31358;46.008;11.144;2022-11-15T03:50:20;7.30;99.90
45643;DHT22;31358;46.008;11.144;2022-11-15T03:52:47;7.30;99.90
45643;DHT22;31358;46.008;11.144;2022-11-15T03:55:16;7.20;99.90
45643;DHT22;31358;46.008;11.144;2022-11-15T03:57:43;6.80;99.90
45643;DHT22;31358;46.008;11.144;2022-11-15T04:00:09;6.60;99.90
45643;DHT22;31358;46.008;11.144;2022-11-15T04:02:35;6.50;99.90
45643;DHT22;31358;46.008;11.144;2022-11-15T04:05:00;6.30;99.90
45643;DHT22;31358;46.008;11.144;2022-11-15T04:07:26;6.30;99.90
45643;DHT22;31358;46.008;11.144;2022-11-15T04:09:52;6.10;99.90
45643;DHT22;31358;46.008;11.144;2022-11-15T04:12:38;6.10;99.90
45643;DHT22;31358;46.008;11.144;2022-11-15T04:15:10;6.00;99.90
45643;DHT22;31358;46.008;11.144;2022-11-15T04:17:56;6.20;99.90
45643;DHT22;31358;46.008;11.144;2022-11-15T04:20:30;6.20;99.90
45643;DHT22;31358;46.008;11.144;2022-11-15T04:23:16;6.30;99.90
45643;DHT22;31358;46.008;11.144;2022-11-15T04:26:05;6.10;99.90
45643;DHT22;31358;46.008;11.144;2022-11-15T04:28:32;6.20;99.90
45643;DHT22;31358;46.008;11.144;2022-11-15T04:30:58;6.30;99.90
45643;DHT22;31358;46.008;11.144;2022-11-15T04:33:24;6.20;99.90
45643;DHT22;31358;46.008;11.144;2022-11-15T04:35:49;6.10;99.90
45643;DHT22;31358;46.008;11.144;2022-11-15T04:38:34;6.00;99.90
45643;DHT22;31358;46.008;11.144;2022-11-15T04:41:00;6.00;99.90
45643;DHT22;31358;46.008;11.144;2022-11-15T04:43:27;6.20;99.90
45643;DHT22;31358;46.008;11.144;2022-11-15T04:45:52;6.30;99.90
45643;DHT22;31358;46.008;11.144;2022-11-15T04:48:18;6.30;99.90
45643;DHT22;31358;46.008;11.144;2022-11-15T04:50:44;6.20;99.90
45643;DHT22;31358;46.008;11.144;2022-11-15T04:53:09;6.30;99.90
45643;DHT22;31358;46.008;11.144;2022-11-15T04:55:35;6.40;99.90
45643;DHT22;31358;46.008;11.144;2022-11-15T04:58:01;6.50;99.90
45643;DHT22;31358;46.008;11.144;2022-11-15T05:00:30;6.70;99.90
45643;DHT22;31358;46.008;11.144;2022-11-15T05:02:56;6.80;99.90
45643;DHT22;31358;46.008;11.144;2022-11-15T05:05:41;6.60;99.90
45643;DHT22;31358;46.008;11.144;2022-11-15T05:08:06;6.50;99.90
45643;DHT22;31358;46.008;11.144;2022-11-15T05:10:32;6.50;99.90
45643;DHT22;31358;46.008;11.144;2022-11-15T05:12:58;6.70;99.90
45643;DHT22;31358;46.008;11.144;2022-11-15T05:15:23;6.70;99.90
45643;DHT22;31358;46.008;11.144;2022-11-15T05:17:49;6.40;99.90
45643;DHT22;31358;46.008;11.144;2022-11-15T05:20:15;6.20;99.90
45643;DHT22;31358;46.008;11.144;2022-11-15T05:22:40;6.20;99.90
45643;DHT22;31358;46.008;11.144;2022-11-15T05:25:07;6.20;99.90
45643;DHT22;31358;46.008;11.144;2022-11-15T05:27:33;6.20;99.90
45643;DHT22;31358;46.008;11.144;2022-11-15T05:29:59;6.30;99.90
45643;DHT22;31358;46.008;11.144;2022-11-15T05:32:25;6.20;99.90
45643;DHT22;31358;46.008;11.144;2022-11-15T05:34:51;6.00;99.90
45643;DHT22;31358;46.008;11.144;2022-11-15T05:37:17;6.10;99.90
45643;DHT22;31358;46.008;11.144;2022-11-15T05:39:43;6.20;99.90
45643;DHT22;31358;46.008;11.144;2022-11-15T05:42:15;6.30;99.90
45643;DHT22;31358;46.008;11.144;2022-11-15T05:44:44;6.10;99.90
45643;DHT22;31358;46.008;11.144;2022-11-15T05:47:15;6.00;99.90
45643;DHT22;31358;46.008;11.144;2022-11-15T05:49:44;5.90;99.90
45643;DHT22;31358;46.008;11.144;2022-11-15T05:52:13;6.00;99.90
45643;DHT22;31358;46.008;11.144;2022-11-15T05:54:39;6.00;99.90
45643;DHT22;31358;46.008;11.144;2022-11-15T05:57:06;6.00;99.90
45643;DHT22;31358;46.008;11.144;2022-11-15T05:59:33;6.00;99.90
45643;DHT22;31358;46.008;11.144;2022-11-15T06:01:59;5.90;99.90
45643;DHT22;31358;46.008;11.144;2022-11-15T06:04:24;6.00;99.90
45643;DHT22;31358;46.008;11.144;2022-11-15T06:06:50;6.00;99.90
45643;DHT22;31358;46.008;11.144;2022-11-15T06:09:16;6.00;99.90
45643;DHT22;31358;46.008;11.144;2022-11-15T06:11:41;6.00;99.90
45643;DHT22;31358;46.008;11.144;2022-11-15T06:14:07;5.90;99.90
45643;DHT22;31358;46.008;11.144;2022-11-15T06:16:33;6.00;99.90
45643;DHT22;31358;46.008;11.144;2022-11-15T06:18:58;6.10;99.90
45643;DHT22;31358;46.008;11.144;2022-11-15T06:21:24;5.90;99.90
45643;DHT22;31358;46.008;11.144;2022-11-15T06:23:50;5.80;99.90
45643;DHT22;31358;46.008;11.144;2022-11-15T06:26:15;6.10;99.90
45643;DHT22;31358;46.008;11.144;2022-11-15T06:28:41;6.10;99.90
45643;DHT22;31358;46.008;11.144;2022-11-15T06:31:08;6.00;99.90
45643;DHT22;31358;46.008;11.144;2022-11-15T06:33:34;6.00;99.90
45643;DHT22;31358;46.008;11.144;2022-11-15T06:36:05;6.10;99.90
45643;DHT22;31358;46.008;11.144;2022-11-15T06:38:31;6.10;99.90
45643;DHT22;31358;46.008;11.144;2022-11-15T06:41:08;6.10;99.90
45643;DHT22;31358;46.008;11.144;2022-11-15T06:43:35;6.20;99.90
45643;DHT22;31358;46.008;11.144;2022-11-15T06:46:02;6.10;99.90
45643;DHT22;31358;46.008;11.144;2022-11-15T06:48:29;6.10;99.90
45643;DHT22;31358;46.008;11.144;2022-11-15T06:50:56;6.10;99.90
45643;DHT22;31358;46.008;11.144;2022-11-15T06:53:23;6.00;99.90
45643;DHT22;31358;46.008;11.144;2022-11-15T06:55:49;5.80;99.90
45643;DHT22;31358;46.008;11.144;2022-11-15T06:58:15;5.90;99.90
45643;DHT22;31358;46.008;11.144;2022-11-15T07:00:41;6.00;99.90
45643;DHT22;31358;46.008;11.144;2022-11-15T07:03:07;6.20;99.90
45643;DHT22;31358;46.008;11.144;2022-11-15T07:05:33;6.40;99.90
45643;DHT22;31358;46.008;11.144;2022-11-15T07:07:59;6.50;99.90
45643;DHT22;31358;46.008;11.144;2022-11-15T07:10:25;6.40;99.90
45643;DHT22;31358;46.008;11.144;2022-11-15T07:12:54;6.30;99.90
45643;DHT22;31358;46.008;11.144;2022-11-15T07:15:23;6.30;99.90
45643;DHT22;31358;46.008;11.144;2022-11-15T07:17:49;6.30;99.90
45643;DHT22;31358;46.008;11.144;2022-11-15T07:20:15;6.30;99.90
45643;DHT22;31358;46.008;11.144;2022-11-15T07:22:41;6.40;99.90
45643;DHT22;31358;46.008;11.144;2022-11-15T07:25:08;6.40;99.90
45643;DHT22;31358;46.008;11.144;2022-11-15T07:27:35;6.60;99.90
45643;DHT22;31358;46.008;11.144;2022-11-15T07:30:00;6.60;99.90
45643;DHT22;31358;46.008;11.144;2022-11-15T07:32:26;6.60;99.90
45643;DHT22;31358;46.008;11.144;2022-11-15T07:34:52;6.60;99.90
45643;DHT22;31358;46.008;11.144;2022-11-15T07:37:18;6.50;99.90
45643;DHT22;31358;46.008;11.144;2022-11-15T07:39:44;6.50;99.90
45643;DHT22;31358;46.008;11.144;2022-11-15T07:42:10;6.50;99.90
45643;DHT22;31358;46.008;11.144;2022-11-15T07:44:54;6.30;99.90
45643;DHT22;31358;46.008;11.144;2022-11-15T07:47:20;6.30;99.90
45643;DHT22;31358;46.008;11.144;2022-11-15T07:49:46;6.30;99.90
45643;DHT22;31358;46.008;11.144;2022-11-15T07:52:13;6.30;99.90
45643;DHT22;31358;46.008;11.144;2022-11-15T07:54:39;6.40;99.90
45643;DHT22;31358;46.008;11.144;2022-11-15T07:57:05;6.70;99.90
45643;DHT22;31358;46.008;11.144;2022-11-15T07:59:32;6.70;99.90
45643;DHT22;31358;46.008;11.144;2022-11-15T08:01:58;6.60;99.90
45643;DHT22;31358;46.008;11.144;2022-11-15T08:04:23;6.50;99.90
45643;DHT22;31358;46.008;11.144;2022-11-15T08:06:49;6.60;99.90
45643;DHT22;31358;46.008;11.144;2022-11-15T08:09:15;6.50;99.90
45643;DHT22;31358;46.008;11.144;2022-11-15T08:11:40;6.80;99.90
45643;DHT22;31358;46.008;11.144;2022-11-15T08:14:06;6.50;99.90
45643;DHT22;31358;46.008;11.144;2022-11-15T08:16:32;6.60;99.90
45643;DHT22;31358;46.008;11.144;2022-11-15T08:18:57;6.60;99.90
45643;DHT22;31358;46.008;11.144;2022-11-15T08:21:23;6.60;99.90
45643;DHT22;31358;46.008;11.144;2022-11-15T08:23:49;6.60;99.90
45643;DHT22;31358;46.008;11.144;2022-11-15T08:26:15;6.60;99.90
45643;DHT22;31358;46.008;11.144;2022-11-15T08:28:41;6.70;99.90
45643;DHT22;31358;46.008;11.144;2022-11-15T08:31:06;6.90;99.90
45643;DHT22;31358;46.008;11.144;2022-11-15T08:33:32;7.10;99.90
45643;DHT22;31358;46.008;11.144;2022-11-15T08:36:01;7.20;99.90
45643;DHT22;31358;46.008;11.144;2022-11-15T08:38:27;7.30;99.90
45643;DHT22;31358;46.008;11.144;2022-11-15T08:41:04;7.30;99.90
45643;DHT22;31358;46.008;11.144;2022-11-15T08:43:31;7.20;99.90
45643;DHT22;31358;46.008;11.144;2022-11-15T08:45:58;7.00;99.90
45643;DHT22;31358;46.008;11.144;2022-11-15T08:48:23;7.10;99.90
45643;DHT22;31358;46.008;11.144;2022-11-15T08:50:55;7.20;99.90
45643;DHT22;31358;46.008;11.144;2022-11-15T08:53:21;7.30;99.90
45643;DHT22;31358;46.008;11.144;2022-11-15T08:55:47;7.30;99.90
45643;DHT22;31358;46.008;11.144;2022-11-15T08:58:13;7.40;99.90
45643;DHT22;31358;46.008;11.144;2022-11-15T09:00:39;7.70;99.90
45643;DHT22;31358;46.008;11.144;2022-11-15T09:03:06;7.70;99.90
45643;DHT22;31358;46.008;11.144;2022-11-15T09:05:32;7.70;99.90
45643;DHT22;31358;46.008;11.144;2022-11-15T09:07:57;7.90;99.90
45643;DHT22;31358;46.008;11.144;2022-11-15T09:10:23;7.90;99.90
45643;DHT22;31358;46.008;11.144;2022-11-15T09:12:49;7.90;99.90
45643;DHT22;31358;46.008;11.144;2022-11-15T09:15:16;8.00;99.90
45643;DHT22;31358;46.008;11.144;2022-11-15T09:17:42;7.80;99.90
45643;DHT22;31358;46.008;11.144;2022-11-15T09:20:08;7.80;99.90
45643;DHT22;31358;46.008;11.144;2022-11-15T09:22:34;7.90;99.90
45643;DHT22;31358;46.008;11.144;2022-11-15T09:25:00;7.80;99.90
45643;DHT22;31358;46.008;11.144;2022-11-15T09:27:29;7.80;99.90
45643;DHT22;31358;46.008;11.144;2022-11-15T09:29:55;7.90;99.90
45643;DHT22;31358;46.008;11.144;2022-11-15T09:32:21;7.90;99.90
45643;DHT22;31358;46.008;11.144;2022-11-15T09:34:50;7.90;99.90
45643;DHT22;31358;46.008;11.144;2022-11-15T09:37:16;8.20;99.90
45643;DHT22;31358;46.008;11.144;2022-11-15T09:39:42;8.20;99.90
45643;DHT22;31358;46.008;11.144;2022-11-15T09:45:17;8.20;99.90
45643;DHT22;31358;46.008;11.144;2022-11-15T09:50:50;8.30;99.90
45643;DHT22;31358;46.008;11.144;2022-11-15T09:53:26;8.30;99.90
45643;DHT22;31358;46.008;11.144;2022-11-15T09:56:05;8.30;99.90
45643;DHT22;31358;46.008;11.144;2022-11-15T10:01:59;8.40;99.90
45643;DHT22;31358;46.008;11.144;2022-11-15T10:04:29;8.50;99.90
45643;DHT22;31358;46.008;11.144;2022-11-15T10:12:29;8.90;99.90
45643;DHT22;31358;46.008;11.144;2022-11-15T10:15:06;8.90;99.90
45643;DHT22;31358;46.008;11.144;2022-11-15T10:22:50;8.90;99.90
45643;DHT22;31358;46.008;11.144;2022-11-15T10:25:30;8.90;99.90
45643;DHT22;31358;46.008;11.144;2022-11-15T10:30:34;8.90;99.90
45643;DHT22;31358;46.008;11.144;2022-11-15T10:33:16;9.00;99.90
45643;DHT22;31358;46.008;11.144;2022-11-15T10:35:43;9.10;99.90
45643;DHT22;31358;46.008;11.144;2022-11-15T10:38:10;9.10;99.90
45643;DHT22;31358;46.008;11.144;2022-11-15T10:40:37;9.20;99.90
45643;DHT22;31358;46.008;11.144;2022-11-15T10:43:14;9.30;99.90
45643;DHT22;31358;46.008;11.144;2022-11-15T10:45:40;9.30;99.90
45643;DHT22;31358;46.008;11.144;2022-11-15T10:50:40;9.30;99.90
45643;DHT22;31358;46.008;11.144;2022-11-15T10:53:32;9.20;99.90
45643;DHT22;31358;46.008;11.144;2022-11-15T10:56:05;9.30;99.90
45643;DHT22;31358;46.008;11.144;2022-11-15T10:59:13;9.40;99.90
45643;DHT22;31358;46.008;11.144;2022-11-15T11:01:29;9.40;99.90
45643;DHT22;31358;46.008;11.144;2022-11-15T11:04:06;9.50;99.90
45643;DHT22;31358;46.008;11.144;2022-11-15T11:06:49;9.70;99.90
45643;DHT22;31358;46.008;11.144;2022-11-15T11:09:36;9.70;99.90
45643;DHT22;31358;46.008;11.144;2022-11-15T11:12:04;9.70;99.90
45643;DHT22;31358;46.008;11.144;2022-11-15T11:14:33;9.70;99.90
45643;DHT22;31358;46.008;11.144;2022-11-15T11:33:21;9.70;99.90
45643;DHT22;31358;46.008;11.144;2022-11-15T11:39:18;9.70;99.90
45643;DHT22;31358;46.008;11.144;2022-11-15T11:42:13;9.70;99.90
45643;DHT22;31358;46.008;11.144;2022-11-15T11:45:06;9.70;99.90
45643;DHT22;31358;46.008;11.144;2022-11-15T11:47:40;9.70;99.90
45643;DHT22;31358;46.008;11.144;2022-11-15T11:50:11;9.90;99.90
45643;DHT22;31358;46.008;11.144;2022-11-15T11:53:05;9.90;99.90
45643;DHT22;31358;46.008;11.144;2022-11-15T11:55:51;9.70;99.90
45643;DHT22;31358;46.008;11.144;2022-11-15T11:58:38;9.80;99.90
45643;DHT22;31358;46.008;11.144;2022-11-15T12:01:44;9.80;99.90
45643;DHT22;31358;46.008;11.144;2022-11-15T12:07:02;9.80;99.90
45643;DHT22;31358;46.008;11.144;2022-11-15T12:17:36;9.80;99.90
45643;DHT22;31358;46.008;11.144;2022-11-15T12:20:15;9.90;99.90
45643;DHT22;31358;46.008;11.144;2022-11-15T12:22:43;9.90;99.90
45643;DHT22;31358;46.008;11.144;2022-11-15T12:27:56;9.90;99.90
45643;DHT22;31358;46.008;11.144;2022-11-15T12:30:23;9.80;99.90
45643;DHT22;31358;46.008;11.144;2022-11-15T12:33:01;9.90;99.90
45643;DHT22;31358;46.008;11.144;2022-11-15T12:35:34;9.90;99.90
45643;DHT22;31358;46.008;11.144;2022-11-15T12:38:01;9.80;99.90
45643;DHT22;31358;46.008;11.144;2022-11-15T12:40:27;9.80;99.90
45643;DHT22;31358;46.008;11.144;2022-11-15T12:45:40;9.70;99.90
45643;DHT22;31358;46.008;11.144;2022-11-15T12:56:15;9.70;99.90
45643;DHT22;31358;46.008;11.144;2022-11-15T12:58:55;9.70;99.90
45643;DHT22;31358;46.008;11.144;2022-11-15T13:12:07;9.90;99.90
45643;DHT22;31358;46.008;11.144;2022-11-15T13:17:03;9.90;99.90
45643;DHT22;31358;46.008;11.144;2022-11-15T13:19:38;10.00;99.90
45643;DHT22;31358;46.008;11.144;2022-11-15T13:22:08;10.00;99.90
45643;DHT22;31358;46.008;11.144;2022-11-15T13:24:52;10.00;99.90
45643;DHT22;31358;46.008;11.144;2022-11-15T13:27:19;9.90;99.90
45643;DHT22;31358;46.008;11.144;2022-11-15T13:29:45;9.80;99.90
45643;DHT22;31358;46.008;11.144;2022-11-15T13:32:14;9.90;99.90
45643;DHT22;31358;46.008;11.144;2022-11-15T13:34:46;9.80;99.90
45643;DHT22;31358;46.008;11.144;2022-11-15T13:37:32;9.80;99.90
45643;DHT22;31358;46.008;11.144;2022-11-15T13:40:28;9.80;99.90
45643;DHT22;31358;46.008;11.144;2022-11-15T13:42:56;9.90;99.90
45643;DHT22;31358;46.008;11.144;2022-11-15T13:45:23;9.90;99.90
45643;DHT22;31358;46.008;11.144;2022-11-15T13:47:56;9.90;99.90
45643;DHT22;31358;46.008;11.144;2022-11-15T13:50:29;9.80;99.90
45643;DHT22;31358;46.008;11.144;2022-11-15T13:53:01;9.80;99.90
45643;DHT22;31358;46.008;11.144;2022-11-15T13:55:30;9.70;99.90
45643;DHT22;31358;46.008;11.144;2022-11-15T13:58:02;9.70;99.90
45643;DHT22;31358;46.008;11.144;2022-11-15T14:00:42;9.70;99.90
45643;DHT22;31358;46.008;11.144;2022-11-15T14:03:21;9.60;99.90
45643;DHT22;31358;46.008;11.144;2022-11-15T14:08:33;9.40;99.90
45643;DHT22;31358;46.008;11.144;2022-11-15T14:11:18;9.40;99.90
45643;DHT22;31358;46.008;11.144;2022-11-15T14:16:43;9.40;99.90
45643;DHT22;31358;46.008;11.144;2022-11-15T14:19:10;9.40;99.90
45643;DHT22;31358;46.008;11.144;2022-11-15T14:21:36;9.30;99.90
45643;DHT22;31358;46.008;11.144;2022-11-15T14:24:20;9.30;99.90
45643;DHT22;31358;46.008;11.144;2022-11-15T14:26:46;9.30;99.90
45643;DHT22;31358;46.008;11.144;2022-11-15T14:29:26;9.30;99.90
45643;DHT22;31358;46.008;11.144;2022-11-15T14:31:53;9.30;99.90
45643;DHT22;31358;46.008;11.144;2022-11-15T14:34:19;9.30;99.90
45643;DHT22;31358;46.008;11.144;2022-11-15T14:36:47;9.30;99.90
45643;DHT22;31358;46.008;11.144;2022-11-15T14:39:13;9.30;99.90
45643;DHT22;31358;46.008;11.144;2022-11-15T14:41:38;9.30;99.90
45643;DHT22;31358;46.008;11.144;2022-11-15T14:44:05;9.40;99.90
45643;DHT22;31358;46.008;11.144;2022-11-15T14:46:31;9.30;99.90
45643;DHT22;31358;46.008;11.144;2022-11-15T14:48:57;9.30;99.90
45643;DHT22;31358;46.008;11.144;2022-11-15T14:51:23;9.40;99.90
45643;DHT22;31358;46.008;11.144;2022-11-15T14:53:48;9.40;99.90
45643;DHT22;31358;46.008;11.144;2022-11-15T14:56:15;9.30;99.90
45643;DHT22;31358;46.008;11.144;2022-11-15T14:58:42;9.30;99.90
45643;DHT22;31358;46.008;11.144;2022-11-15T15:03:39;9.30;99.90
45643;DHT22;31358;46.008;11.144;2022-11-15T15:06:05;9.20;99.90
45643;DHT22;31358;46.008;11.144;2022-11-15T15:08:31;9.10;99.90
45643;DHT22;31358;46.008;11.144;2022-11-15T15:10:56;9.10;99.90
45643;DHT22;31358;46.008;11.144;2022-11-15T15:13:23;9.10;99.90
45643;DHT22;31358;46.008;11.144;2022-11-15T15:15:50;9.20;99.90
45643;DHT22;31358;46.008;11.144;2022-11-15T15:18:17;9.10;99.90
45643;DHT22;31358;46.008;11.144;2022-11-15T15:20:44;9.00;99.90
45643;DHT22;31358;46.008;11.144;2022-11-15T15:23:18;9.10;99.90
45643;DHT22;31358;46.008;11.144;2022-11-15T15:25:46;9.10;99.90
45643;DHT22;31358;46.008;11.144;2022-11-15T15:28:13;9.10;99.90
45643;DHT22;31358;46.008;11.144;2022-11-15T15:30:39;8.90;99.90
45643;DHT22;31358;46.008;11.144;2022-11-15T15:33:04;9.00;99.90
45643;DHT22;31358;46.008;11.144;2022-11-15T15:35:33;9.10;99.90
45643;DHT22;31358;46.008;11.144;2022-11-15T15:37:59;9.10;99.90
45643;DHT22;31358;46.008;11.144;2022-11-15T15:40:25;9.10;99.90
45643;DHT22;31358;46.008;11.144;2022-11-15T15:42:51;8.90;99.90
45643;DHT22;31358;46.008;11.144;2022-11-15T15:45:17;8.80;99.90
45643;DHT22;31358;46.008;11.144;2022-11-15T15:47:44;8.80;99.90
45643;DHT22;31358;46.008;11.144;2022-11-15T15:50:24;8.80;99.90
45643;DHT22;31358;46.008;11.144;2022-11-15T15:52:51;8.80;99.90
45643;DHT22;31358;46.008;11.144;2022-11-15T15:55:17;8.80;99.90
45643;DHT22;31358;46.008;11.144;2022-11-15T15:57:42;8.70;99.90
45643;DHT22;31358;46.008;11.144;2022-11-15T16:00:09;8.80;99.90
45643;DHT22;31358;46.008;11.144;2022-11-15T16:02:35;8.70;99.90
45643;DHT22;31358;46.008;11.144;2022-11-15T16:05:00;8.80;99.90
45643;DHT22;31358;46.008;11.144;2022-11-15T16:07:26;8.90;99.90
45643;DHT22;31358;46.008;11.144;2022-11-15T16:09:54;8.90;99.90
45643;DHT22;31358;46.008;11.144;2022-11-15T16:12:34;8.90;99.90
45643;DHT22;31358;46.008;11.144;2022-11-15T16:15:01;8.90;99.90
45643;DHT22;31358;46.008;11.144;2022-11-15T16:17:31;9.00;99.90
45643;DHT22;31358;46.008;11.144;2022-11-15T16:19:59;9.10;99.90
45643;DHT22;31358;46.008;11.144;2022-11-15T16:22:24;9.00;99.90
45643;DHT22;31358;46.008;11.144;2022-11-15T16:24:50;9.00;99.90
45643;DHT22;31358;46.008;11.144;2022-11-15T16:27:18;8.90;99.90
45643;DHT22;31358;46.008;11.144;2022-11-15T16:29:45;8.80;99.90
45643;DHT22;31358;46.008;11.144;2022-11-15T16:32:11;8.90;99.90
45643;DHT22;31358;46.008;11.144;2022-11-15T16:34:37;8.90;99.90
45643;DHT22;31358;46.008;11.144;2022-11-15T16:37:03;8.80;99.90
45643;DHT22;31358;46.008;11.144;2022-11-15T16:39:29;8.80;99.90
45643;DHT22;31358;46.008;11.144;2022-11-15T16:41:58;8.70;99.90
45643;DHT22;31358;46.008;11.144;2022-11-15T16:44:24;8.60;99.90
45643;DHT22;31358;46.008;11.144;2022-11-15T16:46:50;8.60;99.90
45643;DHT22;31358;46.008;11.144;2022-11-15T16:49:20;8.60;99.90
45643;DHT22;31358;46.008;11.144;2022-11-15T16:51:47;8.70;99.90
45643;DHT22;31358;46.008;11.144;2022-11-15T16:54:13;8.80;99.90
45643;DHT22;31358;46.008;11.144;2022-11-15T16:56:40;8.80;99.90
45643;DHT22;31358;46.008;11.144;2022-11-15T16:59:06;8.70;99.90
45643;DHT22;31358;46.008;11.144;2022-11-15T17:01:37;8.70;99.90
45643;DHT22;31358;46.008;11.144;2022-11-15T17:04:11;8.70;99.90
45643;DHT22;31358;46.008;11.144;2022-11-15T17:06:41;8.70;99.90
45643;DHT22;31358;46.008;11.144;2022-11-15T17:09:17;8.70;99.90
45643;DHT22;31358;46.008;11.144;2022-11-15T17:11:43;8.80;99.90
45643;DHT22;31358;46.008;11.144;2022-11-15T17:14:09;8.90;99.90
45643;DHT22;31358;46.008;11.144;2022-11-15T17:16:34;8.80;99.90
45643;DHT22;31358;46.008;11.144;2022-11-15T17:19:03;8.90;99.90
45643;DHT22;31358;46.008;11.144;2022-11-15T17:21:29;8.90;99.90
45643;DHT22;31358;46.008;11.144;2022-11-15T17:23:55;8.90;99.90
45643;DHT22;31358;46.008;11.144;2022-11-15T17:26:21;8.90;99.90
45643;DHT22;31358;46.008;11.144;2022-11-15T17:28:46;8.90;99.90
45643;DHT22;31358;46.008;11.144;2022-11-15T17:31:13;8.80;99.90
45643;DHT22;31358;46.008;11.144;2022-11-15T17:33:39;8.80;99.90
45643;DHT22;31358;46.008;11.144;2022-11-15T17:36:09;8.80;99.90
45643;DHT22;31358;46.008;11.144;2022-11-15T17:38:34;8.80;99.90
45643;DHT22;31358;46.008;11.144;2022-11-15T17:41:02;8.80;99.90
45643;DHT22;31358;46.008;11.144;2022-11-15T17:43:30;8.80;99.90